sensor_id;sensor_type;location;lat;lon;timestamp;P1;durP1;ratioP1;P2;durP2;ratioP2
8708;SDS011;4391;48.678;9.280;2022-09-09T00:00:44;3.60;;;1.23;;
8708;SDS011;4391;48.678;9.280;2022-09-09T00:03:16;5.18;;;1.27;;
8708;SDS011;4391;48.678;9.280;2022-09-09T00:05:47;4.07;;;1.20;;
8708;SDS011;4391;48.678;9.280;2022-09-09T00:08:24;4.03;;;1.07;;
8708;SDS011;4391;48.678;9.280;2022-09-09T00:11:01;2.60;;;1.00;;
8708;SDS011;4391;48.678;9.280;2022-09-09T00:13:32;4.10;;;1.50;;
8708;SDS011;4391;48.678;9.280;2022-09-09T00:16:04;5.93;;;1.30;;
8708;SDS011;4391;48.678;9.280;2022-09-09T00:18:45;4.90;;;1.05;;
8708;SDS011;4391;48.678;9.280;2022-09-09T00:21:18;3.13;;;1.30;;
8708;SDS011;4391;48.678;9.280;2022-09-09T00:23:50;3.83;;;1.45;;
8708;SDS011;4391;48.678;9.280;2022-09-09T00:26:21;3.22;;;1.08;;
8708;SDS011;4391;48.678;9.280;2022-09-09T00:29:03;5.00;;;1.52;;
8708;SDS011;4391;48.678;9.280;2022-09-09T00:31:36;6.20;;;1.50;;
8708;SDS011;4391;48.678;9.280;2022-09-09T00:34:05;4.20;;;1.30;;
8708;SDS011;4391;48.678;9.280;2022-09-09T00:36:39;6.07;;;1.20;;
8708;SDS011;4391;48.678;9.280;2022-09-09T00:39:08;4.90;;;1.27;;
8708;SDS011;4391;48.678;9.280;2022-09-09T00:41:44;4.28;;;1.17;;
8708;SDS011;4391;48.678;9.280;2022-09-09T00:44:25;5.53;;;1.10;;
8708;SDS011;4391;48.678;9.280;2022-09-09T00:47:04;5.40;;;1.40;;
8708;SDS011;4391;48.678;9.280;2022-09-09T00:49:47;3.78;;;1.20;;
8708;SDS011;4391;48.678;9.280;2022-09-09T00:52:26;4.25;;;1.73;;
8708;SDS011;4391;48.678;9.280;2022-09-09T00:55:03;5.40;;;1.38;;
8708;SDS011;4391;48.678;9.280;2022-09-09T00:57:36;5.65;;;1.38;;
8708;SDS011;4391;48.678;9.280;2022-09-09T01:00:17;5.37;;;1.30;;
8708;SDS011;4391;48.678;9.280;2022-09-09T01:03:02;6.15;;;1.25;;
8708;SDS011;4391;48.678;9.280;2022-09-09T01:05:51;3.38;;;1.10;;
8708;SDS011;4391;48.678;9.280;2022-09-09T01:08:39;4.97;;;1.08;;
8708;SDS011;4391;48.678;9.280;2022-09-09T01:11:20;4.18;;;0.98;;
8708;SDS011;4391;48.678;9.280;2022-09-09T01:13:52;5.60;;;1.30;;
8708;SDS011;4391;48.678;9.280;2022-09-09T01:16:25;8.55;;;1.85;;
8708;SDS011;4391;48.678;9.280;2022-09-09T01:18:54;4.97;;;1.20;;
8708;SDS011;4391;48.678;9.280;2022-09-09T01:21:23;5.25;;;1.50;;
8708;SDS011;4391;48.678;9.280;2022-09-09T01:24:08;3.97;;;1.45;;
8708;SDS011;4391;48.678;9.280;2022-09-09T01:26:46;5.57;;;1.47;;
8708;SDS011;4391;48.678;9.280;2022-09-09T01:29:16;4.88;;;1.20;;
8708;SDS011;4391;48.678;9.280;2022-09-09T01:31:52;2.95;;;1.10;;
8708;SDS011;4391;48.678;9.280;2022-09-09T01:34:20;4.95;;;1.30;;
8708;SDS011;4391;48.678;9.280;2022-09-09T01:36:49;4.22;;;1.40;;
8708;SDS011;4391;48.678;9.280;2022-09-09T01:39:22;7.17;;;1.53;;
8708;SDS011;4391;48.678;9.280;2022-09-09T01:41:50;4.85;;;1.10;;
8708;SDS011;4391;48.678;9.280;2022-09-09T01:44:18;10.52;;;1.25;;
8708;SDS011;4391;48.678;9.280;2022-09-09T01:46:45;6.40;;;1.50;;
8708;SDS011;4391;48.678;9.280;2022-09-09T01:49:12;4.10;;;1.60;;
8708;SDS011;4391;48.678;9.280;2022-09-09T01:51:40;4.27;;;1.80;;
8708;SDS011;4391;48.678;9.280;2022-09-09T01:54:08;4.72;;;1.48;;
8708;SDS011;4391;48.678;9.280;2022-09-09T01:56:40;5.00;;;1.13;;
8708;SDS011;4391;48.678;9.280;2022-09-09T01:59:21;3.63;;;1.17;;
8708;SDS011;4391;48.678;9.280;2022-09-09T02:02:02;3.78;;;1.10;;
8708;SDS011;4391;48.678;9.280;2022-09-09T02:04:38;5.73;;;1.57;;
8708;SDS011;4391;48.678;9.280;2022-09-09T02:07:10;5.93;;;1.05;;
8708;SDS011;4391;48.678;9.280;2022-09-09T02:09:49;4.25;;;1.33;;
8708;SDS011;4391;48.678;9.280;2022-09-09T02:12:24;3.50;;;1.00;;
8708;SDS011;4391;48.678;9.280;2022-09-09T02:14:56;3.45;;;1.17;;
8708;SDS011;4391;48.678;9.280;2022-09-09T02:17:29;5.17;;;1.23;;
8708;SDS011;4391;48.678;9.280;2022-09-09T02:20:03;5.30;;;1.08;;
8708;SDS011;4391;48.678;9.280;2022-09-09T02:22:33;5.05;;;1.35;;
8708;SDS011;4391;48.678;9.280;2022-09-09T02:25:05;6.90;;;1.20;;
8708;SDS011;4391;48.678;9.280;2022-09-09T02:27:34;4.28;;;0.90;;
8708;SDS011;4391;48.678;9.280;2022-09-09T02:30:03;6.00;;;1.40;;
8708;SDS011;4391;48.678;9.280;2022-09-09T02:32:32;2.92;;;0.90;;
8708;SDS011;4391;48.678;9.280;2022-09-09T02:35:02;3.63;;;0.90;;
8708;SDS011;4391;48.678;9.280;2022-09-09T02:37:34;3.83;;;1.02;;
8708;SDS011;4391;48.678;9.280;2022-09-09T02:40:05;5.10;;;1.10;;
8708;SDS011;4391;48.678;9.280;2022-09-09T02:42:38;5.53;;;1.00;;
8708;SDS011;4391;48.678;9.280;2022-09-09T02:45:07;6.60;;;1.27;;
8708;SDS011;4391;48.678;9.280;2022-09-09T02:47:37;4.07;;;1.02;;
8708;SDS011;4391;48.678;9.280;2022-09-09T02:50:11;6.35;;;1.70;;
8708;SDS011;4391;48.678;9.280;2022-09-09T02:52:44;3.38;;;1.02;;
8708;SDS011;4391;48.678;9.280;2022-09-09T02:55:20;3.10;;;1.03;;
8708;SDS011;4391;48.678;9.280;2022-09-09T02:57:51;4.82;;;1.13;;
8708;SDS011;4391;48.678;9.280;2022-09-09T03:00:25;3.60;;;0.93;;
8708;SDS011;4391;48.678;9.280;2022-09-09T03:02:54;4.55;;;1.27;;
8708;SDS011;4391;48.678;9.280;2022-09-09T03:05:21;5.25;;;1.20;;
8708;SDS011;4391;48.678;9.280;2022-09-09T03:07:48;4.13;;;1.47;;
8708;SDS011;4391;48.678;9.280;2022-09-09T03:10:15;4.60;;;1.00;;
8708;SDS011;4391;48.678;9.280;2022-09-09T03:12:42;2.90;;;1.00;;
8708;SDS011;4391;48.678;9.280;2022-09-09T03:15:09;3.08;;;1.10;;
8708;SDS011;4391;48.678;9.280;2022-09-09T03:17:38;4.07;;;1.48;;
8708;SDS011;4391;48.678;9.280;2022-09-09T03:20:05;3.33;;;1.30;;
8708;SDS011;4391;48.678;9.280;2022-09-09T03:22:33;6.50;;;1.10;;
8708;SDS011;4391;48.678;9.280;2022-09-09T03:25:00;6.15;;;1.10;;
8708;SDS011;4391;48.678;9.280;2022-09-09T03:27:27;4.53;;;1.00;;
8708;SDS011;4391;48.678;9.280;2022-09-09T03:29:55;2.40;;;1.02;;
8708;SDS011;4391;48.678;9.280;2022-09-09T03:32:22;4.23;;;1.20;;
8708;SDS011;4391;48.678;9.280;2022-09-09T03:34:52;4.28;;;1.08;;
8708;SDS011;4391;48.678;9.280;2022-09-09T03:37:19;4.70;;;1.13;;
8708;SDS011;4391;48.678;9.280;2022-09-09T03:39:47;5.15;;;1.20;;
8708;SDS011;4391;48.678;9.280;2022-09-09T03:42:14;5.28;;;1.10;;
8708;SDS011;4391;48.678;9.280;2022-09-09T03:44:43;3.67;;;1.03;;
8708;SDS011;4391;48.678;9.280;2022-09-09T03:47:15;4.75;;;1.00;;
8708;SDS011;4391;48.678;9.280;2022-09-09T03:49:43;4.60;;;1.10;;
8708;SDS011;4391;48.678;9.280;2022-09-09T03:52:11;2.35;;;1.00;;
8708;SDS011;4391;48.678;9.280;2022-09-09T03:54:38;3.88;;;1.00;;
8708;SDS011;4391;48.678;9.280;2022-09-09T03:57:07;5.03;;;1.20;;
8708;SDS011;4391;48.678;9.280;2022-09-09T03:59:34;5.05;;;1.25;;
8708;SDS011;4391;48.678;9.280;2022-09-09T04:02:02;5.25;;;1.00;;
8708;SDS011;4391;48.678;9.280;2022-09-09T04:04:29;5.57;;;1.50;;
8708;SDS011;4391;48.678;9.280;2022-09-09T04:06:56;4.47;;;1.10;;
8708;SDS011;4391;48.678;9.280;2022-09-09T04:09:24;5.60;;;1.20;;
8708;SDS011;4391;48.678;9.280;2022-09-09T04:11:51;5.57;;;1.10;;
8708;SDS011;4391;48.678;9.280;2022-09-09T04:14:18;3.58;;;1.00;;
8708;SDS011;4391;48.678;9.280;2022-09-09T04:16:47;4.65;;;1.23;;
8708;SDS011;4391;48.678;9.280;2022-09-09T04:19:13;7.00;;;1.40;;
8708;SDS011;4391;48.678;9.280;2022-09-09T04:21:40;5.33;;;1.10;;
8708;SDS011;4391;48.678;9.280;2022-09-09T04:24:08;4.30;;;1.23;;
8708;SDS011;4391;48.678;9.280;2022-09-09T04:26:36;2.70;;;0.90;;
8708;SDS011;4391;48.678;9.280;2022-09-09T04:29:04;4.43;;;0.90;;
8708;SDS011;4391;48.678;9.280;2022-09-09T04:31:32;3.15;;;1.13;;
8708;SDS011;4391;48.678;9.280;2022-09-09T04:33:59;5.80;;;1.27;;
8708;SDS011;4391;48.678;9.280;2022-09-09T04:36:29;6.13;;;1.10;;
8708;SDS011;4391;48.678;9.280;2022-09-09T04:38:57;3.70;;;1.20;;
8708;SDS011;4391;48.678;9.280;2022-09-09T04:41:23;4.80;;;1.52;;
8708;SDS011;4391;48.678;9.280;2022-09-09T04:43:52;5.20;;;1.25;;
8708;SDS011;4391;48.678;9.280;2022-09-09T04:46:19;5.93;;;1.10;;
8708;SDS011;4391;48.678;9.280;2022-09-09T04:48:45;4.60;;;1.00;;
8708;SDS011;4391;48.678;9.280;2022-09-09T04:51:14;2.92;;;0.80;;
8708;SDS011;4391;48.678;9.280;2022-09-09T04:53:41;5.15;;;1.10;;
8708;SDS011;4391;48.678;9.280;2022-09-09T04:56:09;6.97;;;1.20;;
8708;SDS011;4391;48.678;9.280;2022-09-09T04:58:37;3.90;;;1.23;;
8708;SDS011;4391;48.678;9.280;2022-09-09T05:01:06;5.35;;;1.10;;
8708;SDS011;4391;48.678;9.280;2022-09-09T05:03:34;7.72;;;0.90;;
8708;SDS011;4391;48.678;9.280;2022-09-09T05:06:03;4.07;;;1.15;;
8708;SDS011;4391;48.678;9.280;2022-09-09T05:08:31;5.10;;;1.27;;
8708;SDS011;4391;48.678;9.280;2022-09-09T05:10:58;3.27;;;0.87;;
8708;SDS011;4391;48.678;9.280;2022-09-09T05:13:25;3.78;;;0.90;;
8708;SDS011;4391;48.678;9.280;2022-09-09T05:15:52;4.80;;;1.10;;
8708;SDS011;4391;48.678;9.280;2022-09-09T05:18:21;3.05;;;0.70;;
8708;SDS011;4391;48.678;9.280;2022-09-09T05:20:48;4.88;;;0.93;;
8708;SDS011;4391;48.678;9.280;2022-09-09T05:23:16;3.60;;;1.10;;
8708;SDS011;4391;48.678;9.280;2022-09-09T05:25:43;2.78;;;0.60;;
8708;SDS011;4391;48.678;9.280;2022-09-09T05:28:11;4.00;;;1.02;;
8708;SDS011;4391;48.678;9.280;2022-09-09T05:30:38;3.20;;;1.10;;
8708;SDS011;4391;48.678;9.280;2022-09-09T05:33:05;6.78;;;1.55;;
8708;SDS011;4391;48.678;9.280;2022-09-09T05:35:35;4.93;;;1.00;;
8708;SDS011;4391;48.678;9.280;2022-09-09T05:38:03;5.28;;;0.93;;
8708;SDS011;4391;48.678;9.280;2022-09-09T05:40:29;5.35;;;0.93;;
8708;SDS011;4391;48.678;9.280;2022-09-09T05:42:59;4.88;;;0.90;;
8708;SDS011;4391;48.678;9.280;2022-09-09T05:45:26;3.90;;;0.90;;
8708;SDS011;4391;48.678;9.280;2022-09-09T05:47:53;4.40;;;1.10;;
8708;SDS011;4391;48.678;9.280;2022-09-09T05:50:20;6.18;;;1.00;;
8708;SDS011;4391;48.678;9.280;2022-09-09T05:52:48;3.28;;;0.93;;
8708;SDS011;4391;48.678;9.280;2022-09-09T05:55:15;3.85;;;0.80;;
8708;SDS011;4391;48.678;9.280;2022-09-09T05:57:42;7.38;;;1.58;;
8708;SDS011;4391;48.678;9.280;2022-09-09T06:00:14;3.77;;;0.90;;
8708;SDS011;4391;48.678;9.280;2022-09-09T06:02:41;2.40;;;0.90;;
8708;SDS011;4391;48.678;9.280;2022-09-09T06:05:08;2.83;;;0.93;;
8708;SDS011;4391;48.678;9.280;2022-09-09T06:07:36;3.45;;;0.90;;
8708;SDS011;4391;48.678;9.280;2022-09-09T06:10:08;4.57;;;1.10;;
8708;SDS011;4391;48.678;9.280;2022-09-09T06:12:35;2.60;;;0.90;;
8708;SDS011;4391;48.678;9.280;2022-09-09T06:15:02;3.00;;;0.90;;
8708;SDS011;4391;48.678;9.280;2022-09-09T06:17:30;3.65;;;1.00;;
8708;SDS011;4391;48.678;9.280;2022-09-09T06:19:57;3.35;;;0.82;;
8708;SDS011;4391;48.678;9.280;2022-09-09T06:22:24;3.65;;;0.82;;
8708;SDS011;4391;48.678;9.280;2022-09-09T06:24:51;3.87;;;0.90;;
8708;SDS011;4391;48.678;9.280;2022-09-09T06:27:20;2.50;;;0.80;;
8708;SDS011;4391;48.678;9.280;2022-09-09T06:29:46;3.47;;;1.60;;
8708;SDS011;4391;48.678;9.280;2022-09-09T06:32:13;2.70;;;0.93;;
8708;SDS011;4391;48.678;9.280;2022-09-09T06:34:43;3.63;;;0.77;;
8708;SDS011;4391;48.678;9.280;2022-09-09T06:37:10;2.90;;;1.10;;
8708;SDS011;4391;48.678;9.280;2022-09-09T06:39:37;4.25;;;0.90;;
8708;SDS011;4391;48.678;9.280;2022-09-09T06:42:04;4.00;;;0.95;;
8708;SDS011;4391;48.678;9.280;2022-09-09T06:44:35;3.17;;;0.90;;
8708;SDS011;4391;48.678;9.280;2022-09-09T06:47:02;6.45;;;1.30;;
8708;SDS011;4391;48.678;9.280;2022-09-09T06:49:29;3.40;;;0.90;;
8708;SDS011;4391;48.678;9.280;2022-09-09T06:51:56;2.38;;;0.82;;
8708;SDS011;4391;48.678;9.280;2022-09-09T06:54:22;3.70;;;0.93;;
8708;SDS011;4391;48.678;9.280;2022-09-09T06:56:53;5.60;;;1.40;;
8708;SDS011;4391;48.678;9.280;2022-09-09T06:59:20;6.30;;;1.30;;
8708;SDS011;4391;48.678;9.280;2022-09-09T07:01:48;3.10;;;1.00;;
8708;SDS011;4391;48.678;9.280;2022-09-09T07:04:16;3.45;;;0.90;;
8708;SDS011;4391;48.678;9.280;2022-09-09T07:06:44;4.55;;;1.05;;
8708;SDS011;4391;48.678;9.280;2022-09-09T07:09:13;3.60;;;1.05;;
8708;SDS011;4391;48.678;9.280;2022-09-09T07:11:42;5.28;;;1.10;;
8708;SDS011;4391;48.678;9.280;2022-09-09T07:14:10;6.47;;;0.90;;
8708;SDS011;4391;48.678;9.280;2022-09-09T07:16:39;5.13;;;1.10;;
8708;SDS011;4391;48.678;9.280;2022-09-09T07:19:07;7.10;;;1.42;;
8708;SDS011;4391;48.678;9.280;2022-09-09T07:21:34;4.95;;;1.30;;
8708;SDS011;4391;48.678;9.280;2022-09-09T07:24:01;5.97;;;1.23;;
8708;SDS011;4391;48.678;9.280;2022-09-09T07:26:32;5.27;;;1.10;;
8708;SDS011;4391;48.678;9.280;2022-09-09T07:29:00;2.17;;;0.65;;
8708;SDS011;4391;48.678;9.280;2022-09-09T07:31:27;2.90;;;0.88;;
8708;SDS011;4391;48.678;9.280;2022-09-09T07:33:56;5.13;;;1.10;;
8708;SDS011;4391;48.678;9.280;2022-09-09T07:36:24;6.88;;;1.33;;
8708;SDS011;4391;48.678;9.280;2022-09-09T07:38:53;7.07;;;1.30;;
8708;SDS011;4391;48.678;9.280;2022-09-09T07:41:22;3.15;;;0.80;;
8708;SDS011;4391;48.678;9.280;2022-09-09T07:43:50;5.78;;;1.00;;
8708;SDS011;4391;48.678;9.280;2022-09-09T07:46:19;5.00;;;1.27;;
8708;SDS011;4391;48.678;9.280;2022-09-09T07:48:48;5.05;;;0.90;;
8708;SDS011;4391;48.678;9.280;2022-09-09T07:51:16;4.57;;;0.90;;
8708;SDS011;4391;48.678;9.280;2022-09-09T07:53:46;3.60;;;1.20;;
8708;SDS011;4391;48.678;9.280;2022-09-09T07:56:14;5.00;;;1.10;;
8708;SDS011;4391;48.678;9.280;2022-09-09T07:58:42;4.50;;;1.00;;
8708;SDS011;4391;48.678;9.280;2022-09-09T08:01:12;4.07;;;0.90;;
8708;SDS011;4391;48.678;9.280;2022-09-09T08:03:41;2.77;;;0.87;;
8708;SDS011;4391;48.678;9.280;2022-09-09T08:06:09;2.88;;;0.93;;
8708;SDS011;4391;48.678;9.280;2022-09-09T08:08:37;3.15;;;0.80;;
8708;SDS011;4391;48.678;9.280;2022-09-09T08:11:09;4.78;;;1.02;;
8708;SDS011;4391;48.678;9.280;2022-09-09T08:13:37;2.13;;;0.60;;
8708;SDS011;4391;48.678;9.280;2022-09-09T08:16:06;6.53;;;1.20;;
8708;SDS011;4391;48.678;9.280;2022-09-09T08:18:33;3.97;;;0.70;;
8708;SDS011;4391;48.678;9.280;2022-09-09T08:21:08;4.43;;;0.85;;
8708;SDS011;4391;48.678;9.280;2022-09-09T08:23:36;4.00;;;0.85;;
8708;SDS011;4391;48.678;9.280;2022-09-09T08:26:05;3.38;;;0.80;;
8708;SDS011;4391;48.678;9.280;2022-09-09T08:28:36;4.67;;;0.83;;
8708;SDS011;4391;48.678;9.280;2022-09-09T08:31:10;7.35;;;0.93;;
8708;SDS011;4391;48.678;9.280;2022-09-09T08:33:38;3.00;;;0.80;;
8708;SDS011;4391;48.678;9.280;2022-09-09T08:36:06;6.57;;;1.10;;
8708;SDS011;4391;48.678;9.280;2022-09-09T08:38:36;4.18;;;0.95;;
8708;SDS011;4391;48.678;9.280;2022-09-09T08:41:07;1.90;;;0.80;;
8708;SDS011;4391;48.678;9.280;2022-09-09T08:43:48;3.90;;;1.10;;
8708;SDS011;4391;48.678;9.280;2022-09-09T08:46:25;5.47;;;1.20;;
8708;SDS011;4391;48.678;9.280;2022-09-09T08:48:58;5.40;;;1.10;;
8708;SDS011;4391;48.678;9.280;2022-09-09T08:51:29;2.90;;;0.70;;
8708;SDS011;4391;48.678;9.280;2022-09-09T08:53:58;3.67;;;0.90;;
8708;SDS011;4391;48.678;9.280;2022-09-09T08:56:30;4.13;;;0.90;;
8708;SDS011;4391;48.678;9.280;2022-09-09T08:58:59;3.75;;;0.80;;
8708;SDS011;4391;48.678;9.280;2022-09-09T09:01:40;4.35;;;1.20;;
8708;SDS011;4391;48.678;9.280;2022-09-09T09:04:15;4.20;;;1.10;;
8708;SDS011;4391;48.678;9.280;2022-09-09T09:07:06;3.07;;;0.70;;
8708;SDS011;4391;48.678;9.280;2022-09-09T09:09:40;4.80;;;1.00;;
8708;SDS011;4391;48.678;9.280;2022-09-09T09:12:19;4.68;;;0.70;;
8708;SDS011;4391;48.678;9.280;2022-09-09T09:14:48;4.22;;;0.73;;
8708;SDS011;4391;48.678;9.280;2022-09-09T09:17:16;13.63;;;1.73;;
8708;SDS011;4391;48.678;9.280;2022-09-09T09:19:45;4.10;;;0.83;;
8708;SDS011;4391;48.678;9.280;2022-09-09T09:22:16;2.83;;;0.77;;
8708;SDS011;4391;48.678;9.280;2022-09-09T09:24:45;4.95;;;0.77;;
8708;SDS011;4391;48.678;9.280;2022-09-09T09:27:24;7.80;;;1.00;;
8708;SDS011;4391;48.678;9.280;2022-09-09T09:29:56;4.53;;;0.90;;
8708;SDS011;4391;48.678;9.280;2022-09-09T09:32:25;4.67;;;1.00;;
8708;SDS011;4391;48.678;9.280;2022-09-09T09:34:57;3.90;;;0.88;;
8708;SDS011;4391;48.678;9.280;2022-09-09T09:37:30;3.42;;;0.82;;
8708;SDS011;4391;48.678;9.280;2022-09-09T09:40:07;5.07;;;0.80;;
8708;SDS011;4391;48.678;9.280;2022-09-09T09:42:36;3.50;;;0.40;;
8708;SDS011;4391;48.678;9.280;2022-09-09T09:45:07;2.27;;;0.67;;
8708;SDS011;4391;48.678;9.280;2022-09-09T09:47:41;2.13;;;0.50;;
8708;SDS011;4391;48.678;9.280;2022-09-09T09:50:15;2.95;;;0.80;;
8708;SDS011;4391;48.678;9.280;2022-09-09T09:52:52;4.32;;;1.00;;
8708;SDS011;4391;48.678;9.280;2022-09-09T09:55:21;2.05;;;0.40;;
8708;SDS011;4391;48.678;9.280;2022-09-09T09:57:50;2.43;;;0.60;;
8708;SDS011;4391;48.678;9.280;2022-09-09T10:00:19;2.38;;;0.40;;
8708;SDS011;4391;48.678;9.280;2022-09-09T10:02:47;3.05;;;0.50;;
8708;SDS011;4391;48.678;9.280;2022-09-09T10:05:18;2.95;;;0.60;;
8708;SDS011;4391;48.678;9.280;2022-09-09T10:07:46;1.48;;;0.45;;
8708;SDS011;4391;48.678;9.280;2022-09-09T10:10:15;5.00;;;0.60;;
8708;SDS011;4391;48.678;9.280;2022-09-09T10:12:50;3.10;;;0.50;;
8708;SDS011;4391;48.678;9.280;2022-09-09T10:15:30;2.97;;;0.50;;
8708;SDS011;4391;48.678;9.280;2022-09-09T10:18:08;5.30;;;0.40;;
8708;SDS011;4391;48.678;9.280;2022-09-09T10:20:45;3.95;;;0.50;;
8708;SDS011;4391;48.678;9.280;2022-09-09T10:23:35;2.93;;;0.60;;
8708;SDS011;4391;48.678;9.280;2022-09-09T10:26:15;2.58;;;0.50;;
8708;SDS011;4391;48.678;9.280;2022-09-09T10:31:44;4.80;;;0.80;;
8708;SDS011;4391;48.678;9.280;2022-09-09T10:34:19;4.00;;;0.77;;
8708;SDS011;4391;48.678;9.280;2022-09-09T10:36:56;6.20;;;0.80;;
8708;SDS011;4391;48.678;9.280;2022-09-09T10:39:28;3.78;;;0.80;;
8708;SDS011;4391;48.678;9.280;2022-09-09T10:42:03;3.05;;;0.55;;
8708;SDS011;4391;48.678;9.280;2022-09-09T10:44:37;3.97;;;1.25;;
8708;SDS011;4391;48.678;9.280;2022-09-09T10:50:28;2.77;;;0.40;;
8708;SDS011;4391;48.678;9.280;2022-09-09T10:53:12;3.78;;;0.60;;
8708;SDS011;4391;48.678;9.280;2022-09-09T10:55:52;5.28;;;0.90;;
8708;SDS011;4391;48.678;9.280;2022-09-09T10:58:24;4.63;;;0.70;;
8708;SDS011;4391;48.678;9.280;2022-09-09T11:00:56;3.13;;;0.50;;
8708;SDS011;4391;48.678;9.280;2022-09-09T11:03:27;8.80;;;1.00;;
8708;SDS011;4391;48.678;9.280;2022-09-09T11:05:59;5.37;;;0.93;;
8708;SDS011;4391;48.678;9.280;2022-09-09T11:08:30;7.57;;;0.70;;
8708;SDS011;4391;48.678;9.280;2022-09-09T11:11:02;3.40;;;0.60;;
8708;SDS011;4391;48.678;9.280;2022-09-09T11:13:35;4.45;;;0.60;;
8708;SDS011;4391;48.678;9.280;2022-09-09T11:16:15;4.20;;;0.70;;
8708;SDS011;4391;48.678;9.280;2022-09-09T11:18:48;5.97;;;0.90;;
8708;SDS011;4391;48.678;9.280;2022-09-09T11:21:17;4.25;;;0.70;;
8708;SDS011;4391;48.678;9.280;2022-09-09T11:23:49;7.95;;;1.08;;
8708;SDS011;4391;48.678;9.280;2022-09-09T11:26:22;7.80;;;1.00;;
8708;SDS011;4391;48.678;9.280;2022-09-09T11:28:59;4.15;;;0.90;;
8708;SDS011;4391;48.678;9.280;2022-09-09T11:31:41;2.93;;;0.67;;
8708;SDS011;4391;48.678;9.280;2022-09-09T11:34:25;4.28;;;0.70;;
8708;SDS011;4391;48.678;9.280;2022-09-09T11:37:26;4.90;;;0.73;;
8708;SDS011;4391;48.678;9.280;2022-09-09T11:40:14;4.28;;;0.75;;
8708;SDS011;4391;48.678;9.280;2022-09-09T11:42:45;5.28;;;1.20;;
8708;SDS011;4391;48.678;9.280;2022-09-09T11:45:22;5.80;;;0.83;;
8708;SDS011;4391;48.678;9.280;2022-09-09T11:47:55;1.98;;;0.60;;
8708;SDS011;4391;48.678;9.280;2022-09-09T11:50:27;5.13;;;0.88;;
8708;SDS011;4391;48.678;9.280;2022-09-09T11:53:04;1.95;;;0.40;;
8708;SDS011;4391;48.678;9.280;2022-09-09T11:56:01;4.57;;;0.65;;
8708;SDS011;4391;48.678;9.280;2022-09-09T11:58:31;3.37;;;0.70;;
8708;SDS011;4391;48.678;9.280;2022-09-09T12:01:15;1.45;;;0.32;;
8708;SDS011;4391;48.678;9.280;2022-09-09T12:03:59;1.45;;;0.50;;
8708;SDS011;4391;48.678;9.280;2022-09-09T12:06:48;2.25;;;0.40;;
8708;SDS011;4391;48.678;9.280;2022-09-09T12:09:21;1.95;;;0.50;;
8708;SDS011;4391;48.678;9.280;2022-09-09T12:11:51;1.30;;;0.50;;
8708;SDS011;4391;48.678;9.280;2022-09-09T12:14:22;2.15;;;0.35;;
8708;SDS011;4391;48.678;9.280;2022-09-09T12:17:09;1.05;;;0.20;;
8708;SDS011;4391;48.678;9.280;2022-09-09T12:19:44;1.60;;;0.30;;
8708;SDS011;4391;48.678;9.280;2022-09-09T12:22:14;1.08;;;0.35;;
8708;SDS011;4391;48.678;9.280;2022-09-09T12:24:52;0.33;;;0.20;;
8708;SDS011;4391;48.678;9.280;2022-09-09T12:27:26;0.70;;;0.20;;
8708;SDS011;4391;48.678;9.280;2022-09-09T12:35:03;2.38;;;0.40;;
8708;SDS011;4391;48.678;9.280;2022-09-09T12:37:37;1.13;;;0.30;;
8708;SDS011;4391;48.678;9.280;2022-09-09T12:40:06;2.40;;;0.40;;
8708;SDS011;4391;48.678;9.280;2022-09-09T12:42:46;2.05;;;0.52;;
8708;SDS011;4391;48.678;9.280;2022-09-09T12:45:16;0.90;;;0.20;;
8708;SDS011;4391;48.678;9.280;2022-09-09T12:47:45;3.67;;;0.53;;
8708;SDS011;4391;48.678;9.280;2022-09-09T12:50:17;2.63;;;0.40;;
8708;SDS011;4391;48.678;9.280;2022-09-09T12:52:47;3.97;;;0.80;;
8708;SDS011;4391;48.678;9.280;2022-09-09T12:55:16;2.35;;;0.50;;
8708;SDS011;4391;48.678;9.280;2022-09-09T12:57:45;3.65;;;0.70;;
8708;SDS011;4391;48.678;9.280;2022-09-09T13:00:15;3.20;;;0.50;;
8708;SDS011;4391;48.678;9.280;2022-09-09T13:02:48;2.50;;;0.60;;
8708;SDS011;4391;48.678;9.280;2022-09-09T13:05:19;1.70;;;0.50;;
8708;SDS011;4391;48.678;9.280;2022-09-09T13:07:47;3.00;;;0.73;;
8708;SDS011;4391;48.678;9.280;2022-09-09T13:10:17;4.57;;;0.80;;
8708;SDS011;4391;48.678;9.280;2022-09-09T13:12:50;2.85;;;0.40;;
8708;SDS011;4391;48.678;9.280;2022-09-09T13:15:19;1.10;;;0.40;;
8708;SDS011;4391;48.678;9.280;2022-09-09T13:17:51;2.65;;;0.47;;
8708;SDS011;4391;48.678;9.280;2022-09-09T13:20:22;1.25;;;0.50;;
8708;SDS011;4391;48.678;9.280;2022-09-09T13:22:50;3.10;;;0.60;;
8708;SDS011;4391;48.678;9.280;2022-09-09T13:25:20;4.93;;;0.50;;
8708;SDS011;4391;48.678;9.280;2022-09-09T13:27:55;3.73;;;0.50;;
8708;SDS011;4391;48.678;9.280;2022-09-09T13:30:24;1.95;;;0.30;;
8708;SDS011;4391;48.678;9.280;2022-09-09T13:33:19;3.85;;;0.57;;
8708;SDS011;4391;48.678;9.280;2022-09-09T13:35:50;2.22;;;0.50;;
8708;SDS011;4391;48.678;9.280;2022-09-09T13:38:20;3.13;;;0.45;;
8708;SDS011;4391;48.678;9.280;2022-09-09T13:40:54;6.60;;;0.40;;
8708;SDS011;4391;48.678;9.280;2022-09-09T13:43:24;6.25;;;0.50;;
8708;SDS011;4391;48.678;9.280;2022-09-09T13:45:53;2.08;;;0.38;;
8708;SDS011;4391;48.678;9.280;2022-09-09T13:48:25;2.45;;;0.50;;
8708;SDS011;4391;48.678;9.280;2022-09-09T13:50:58;4.22;;;0.50;;
8708;SDS011;4391;48.678;9.280;2022-09-09T13:53:26;3.50;;;0.57;;
8708;SDS011;4391;48.678;9.280;2022-09-09T13:55:54;2.73;;;0.40;;
8708;SDS011;4391;48.678;9.280;2022-09-09T13:58:21;1.33;;;0.40;;
8708;SDS011;4391;48.678;9.280;2022-09-09T14:00:50;2.25;;;0.50;;
8708;SDS011;4391;48.678;9.280;2022-09-09T14:03:17;2.25;;;0.50;;
8708;SDS011;4391;48.678;9.280;2022-09-09T14:05:44;2.95;;;0.40;;
8708;SDS011;4391;48.678;9.280;2022-09-09T14:08:17;1.85;;;0.50;;
8708;SDS011;4391;48.678;9.280;2022-09-09T14:10:50;2.03;;;0.52;;
8708;SDS011;4391;48.678;9.280;2022-09-09T14:13:20;2.05;;;0.40;;
8708;SDS011;4391;48.678;9.280;2022-09-09T14:15:48;3.00;;;0.40;;
8708;SDS011;4391;48.678;9.280;2022-09-09T14:18:15;3.67;;;0.60;;
8708;SDS011;4391;48.678;9.280;2022-09-09T14:20:44;2.60;;;0.55;;
8708;SDS011;4391;48.678;9.280;2022-09-09T14:23:11;1.10;;;0.30;;
8708;SDS011;4391;48.678;9.280;2022-09-09T14:25:42;2.55;;;0.40;;
8708;SDS011;4391;48.678;9.280;2022-09-09T14:28:10;2.05;;;0.40;;
8708;SDS011;4391;48.678;9.280;2022-09-09T14:30:38;1.75;;;0.40;;
8708;SDS011;4391;48.678;9.280;2022-09-09T14:33:05;1.70;;;0.47;;
8708;SDS011;4391;48.678;9.280;2022-09-09T14:35:33;2.55;;;0.50;;
8708;SDS011;4391;48.678;9.280;2022-09-09T14:38:01;1.85;;;0.30;;
8708;SDS011;4391;48.678;9.280;2022-09-09T14:40:29;2.53;;;0.75;;
8708;SDS011;4391;48.678;9.280;2022-09-09T14:42:57;1.98;;;0.40;;
8708;SDS011;4391;48.678;9.280;2022-09-09T14:45:24;2.33;;;0.40;;
8708;SDS011;4391;48.678;9.280;2022-09-09T14:47:52;6.67;;;0.60;;
8708;SDS011;4391;48.678;9.280;2022-09-09T14:50:19;1.10;;;0.30;;
8708;SDS011;4391;48.678;9.280;2022-09-09T14:52:47;2.40;;;0.40;;
8708;SDS011;4391;48.678;9.280;2022-09-09T14:55:15;1.58;;;0.43;;
8708;SDS011;4391;48.678;9.280;2022-09-09T14:57:42;1.60;;;0.32;;
8708;SDS011;4391;48.678;9.280;2022-09-09T15:00:10;2.95;;;0.50;;
8708;SDS011;4391;48.678;9.280;2022-09-09T15:02:38;2.53;;;0.50;;
8708;SDS011;4391;48.678;9.280;2022-09-09T15:05:05;2.30;;;0.30;;
8708;SDS011;4391;48.678;9.280;2022-09-09T15:07:33;1.77;;;0.40;;
8708;SDS011;4391;48.678;9.280;2022-09-09T15:10:00;2.88;;;0.40;;
8708;SDS011;4391;48.678;9.280;2022-09-09T15:12:28;2.03;;;0.50;;
8708;SDS011;4391;48.678;9.280;2022-09-09T15:14:55;3.35;;;0.40;;
8708;SDS011;4391;48.678;9.280;2022-09-09T15:17:23;2.65;;;0.40;;
8708;SDS011;4391;48.678;9.280;2022-09-09T15:19:52;2.20;;;0.40;;
8708;SDS011;4391;48.678;9.280;2022-09-09T15:22:19;2.50;;;0.30;;
8708;SDS011;4391;48.678;9.280;2022-09-09T15:24:46;3.33;;;0.50;;
8708;SDS011;4391;48.678;9.280;2022-09-09T15:27:13;2.30;;;0.40;;
8708;SDS011;4391;48.678;9.280;2022-09-09T15:29:40;3.42;;;0.60;;
8708;SDS011;4391;48.678;9.280;2022-09-09T15:32:09;3.40;;;0.60;;
8708;SDS011;4391;48.678;9.280;2022-09-09T15:34:37;2.30;;;0.50;;
8708;SDS011;4391;48.678;9.280;2022-09-09T15:37:04;3.17;;;0.50;;
8708;SDS011;4391;48.678;9.280;2022-09-09T15:39:32;1.50;;;0.60;;
8708;SDS011;4391;48.678;9.280;2022-09-09T15:41:59;3.08;;;0.38;;
8708;SDS011;4391;48.678;9.280;2022-09-09T15:44:26;3.45;;;0.70;;
8708;SDS011;4391;48.678;9.280;2022-09-09T15:46:53;3.83;;;0.60;;
8708;SDS011;4391;48.678;9.280;2022-09-09T15:49:21;3.13;;;0.60;;